createdAt,value
2018-02-12T00:00:00.094Z,0.85
2018-02-12T00:02:27.628Z,1.80
2018-02-12T00:04:55.144Z,1.35
2018-02-12T00:07:23.430Z,1.20
2018-02-12T00:09:51.708Z,1.35
2018-02-12T00:12:19.997Z,1.17
2018-02-12T00:14:49.048Z,1.15
2018-02-12T00:17:16.737Z,1.80
2018-02-12T00:19:45.024Z,1.80
2018-02-12T00:22:13.295Z,1.23
2018-02-12T00:24:41.561Z,1.20
2018-02-12T00:27:09.823Z,1.83
2018-02-12T00:29:37.339Z,1.40
2018-02-12T00:32:04.843Z,1.92
2018-02-12T00:34:32.383Z,1.40
2018-02-12T00:36:59.883Z,1.17
2018-02-12T00:39:28.164Z,1.25
2018-02-12T00:41:55.692Z,1.48
2018-02-12T00:44:23.205Z,1.70
2018-02-12T00:46:51.534Z,1.60
2018-02-12T00:49:19.977Z,1.27
2018-02-12T00:51:48.265Z,1.35
2018-02-12T00:54:16.616Z,1.58
2018-02-12T00:56:45.872Z,1.70
2018-02-12T00:59:14.031Z,1.45
2018-02-12T01:01:42.706Z,1.45
2018-02-12T01:04:11.276Z,1.60
2018-02-12T01:06:38.775Z,1.87
2018-02-12T01:09:07.058Z,1.65
2018-02-12T01:11:35.317Z,1.15
2018-02-12T01:14:02.838Z,1.80
2018-02-12T01:16:30.385Z,1.37
2018-02-12T01:18:57.901Z,1.42
2018-02-12T01:21:26.175Z,1.10
2018-02-12T01:23:54.477Z,1.58
2018-02-12T01:26:21.963Z,1.85
2018-02-12T01:28:49.457Z,1.35
2018-02-12T01:31:16.989Z,1.77
2018-02-12T01:33:44.500Z,1.73
2018-02-12T01:36:12.776Z,1.80
2018-02-12T01:38:41.033Z,1.73
2018-02-12T01:41:08.555Z,2.08
2018-02-12T01:43:36.072Z,1.80
2018-02-12T01:46:04.354Z,2.08
2018-02-12T01:48:31.850Z,2.42
2018-02-12T01:50:59.360Z,2.17
2018-02-12T01:53:27.631Z,2.60
2018-02-12T01:55:55.893Z,2.28
2018-02-12T01:58:23.414Z,2.42
2018-02-12T02:00:50.901Z,2.40
2018-02-12T02:03:18.408Z,2.20
2018-02-12T02:05:45.910Z,1.90
2018-02-12T02:08:13.408Z,1.98
2018-02-12T02:10:41.660Z,1.85
2018-02-12T02:13:09.187Z,1.65
2018-02-12T02:15:36.689Z,1.85
2018-02-12T02:18:04.958Z,1.90
2018-02-12T02:20:32.475Z,1.80
2018-02-12T02:22:59.983Z,2.00
2018-02-12T02:25:28.256Z,1.35
2018-02-12T02:27:56.536Z,1.42
2018-02-12T02:30:24.823Z,1.40
2018-02-12T02:32:53.076Z,1.75
2018-02-12T02:35:20.594Z,1.60
2018-02-12T02:37:48.089Z,1.75
2018-02-12T02:40:15.614Z,1.30
2018-02-12T02:42:43.112Z,1.90
2018-02-12T02:45:10.620Z,1.25
2018-02-12T02:47:38.151Z,1.80
2018-02-12T02:50:06.418Z,1.62
2018-02-12T02:52:34.687Z,1.80
2018-02-12T02:55:02.950Z,1.55
2018-02-12T02:57:30.456Z,1.87
2018-02-12T02:59:57.958Z,1.52
2018-02-12T03:02:25.495Z,1.98
2018-02-12T03:04:53.006Z,1.60
2018-02-12T03:07:21.271Z,2.05
2018-02-12T03:09:49.543Z,2.00
2018-02-12T03:12:17.028Z,2.00
2018-02-12T03:14:44.555Z,2.03
2018-02-12T03:17:12.066Z,1.30
2018-02-12T03:19:39.582Z,1.45
2018-02-12T03:22:07.855Z,2.10
2018-02-12T03:24:36.147Z,1.65
2018-02-12T03:27:04.414Z,1.83
2018-02-12T03:29:32.689Z,1.87
2018-02-12T03:32:00.940Z,1.77
2018-02-12T03:34:28.441Z,2.28
2018-02-12T03:36:55.962Z,2.35
2018-02-12T03:39:23.470Z,2.20
2018-02-12T03:41:51.010Z,1.85
2018-02-12T03:44:19.273Z,2.00
2018-02-12T03:46:47.549Z,2.30
2018-02-12T03:49:15.819Z,1.80
2018-02-12T03:51:43.322Z,2.03
2018-02-12T03:54:10.817Z,1.62
2018-02-12T03:56:38.314Z,1.65
2018-02-12T03:59:06.608Z,1.10
2018-02-12T04:01:34.109Z,1.23
2018-02-12T04:04:01.622Z,1.20
2018-02-12T04:06:29.134Z,1.30
2018-02-12T04:08:56.650Z,1.75
2018-02-12T04:11:24.211Z,1.33
2018-02-12T04:13:51.726Z,1.37
2018-02-12T04:16:19.984Z,1.23
2018-02-12T04:18:47.519Z,0.90
2018-02-12T04:21:15.015Z,1.62
2018-02-12T04:23:42.504Z,1.42
2018-02-12T04:26:10.010Z,1.23
2018-02-12T04:28:37.516Z,1.20
2018-02-12T04:31:05.020Z,1.77
2018-02-12T04:33:32.513Z,1.05
2018-02-12T04:36:00.808Z,0.98
2018-02-12T04:38:28.324Z,1.20
2018-02-12T04:40:55.864Z,1.40
2018-02-12T04:43:23.375Z,1.20
2018-02-12T04:45:51.657Z,1.65
2018-02-12T04:48:19.184Z,1.55
2018-02-12T04:50:46.693Z,1.67
2018-02-12T04:53:14.218Z,1.55
2018-02-12T04:55:42.481Z,1.33
2018-02-12T04:58:09.998Z,1.48
2018-02-12T05:00:37.491Z,1.67
2018-02-12T05:03:05.009Z,1.52
2018-02-12T05:05:32.496Z,1.17
2018-02-12T05:08:00.088Z,1.67
2018-02-12T05:10:28.350Z,1.62
2018-02-12T05:12:55.859Z,1.60
2018-02-12T05:15:23.387Z,1.70
2018-02-12T05:17:51.663Z,1.60
2018-02-12T05:20:19.180Z,1.30
2018-02-12T05:22:46.682Z,1.77
2018-02-12T05:25:14.971Z,2.05
2018-02-12T05:27:42.470Z,1.25
2018-02-12T05:30:10.760Z,1.30
2018-02-12T05:32:38.263Z,1.30
2018-02-12T05:35:05.758Z,1.30
2018-02-12T05:37:33.273Z,1.45
2018-02-12T05:40:00.784Z,1.40
2018-02-12T05:42:28.296Z,1.15
2018-02-12T05:44:55.794Z,1.70
2018-02-12T05:47:23.314Z,1.10
2018-02-12T05:49:50.823Z,1.37
2018-02-12T05:52:18.355Z,1.35
2018-02-12T05:54:45.868Z,1.30
2018-02-12T05:57:14.148Z,1.45
2018-02-12T05:59:42.440Z,1.40
2018-02-12T06:02:09.930Z,0.90
2018-02-12T06:04:37.438Z,1.48
2018-02-12T06:07:05.701Z,1.25
2018-02-12T06:09:33.218Z,1.35
2018-02-12T06:12:00.719Z,1.10
2018-02-12T06:14:29.036Z,1.17
2018-02-12T06:16:56.529Z,0.90
2018-02-12T06:19:24.056Z,1.62
2018-02-12T06:21:51.548Z,0.77
2018-02-12T06:24:19.046Z,0.82
2018-02-12T06:26:47.336Z,0.88
2018-02-12T06:29:14.855Z,1.00
2018-02-12T06:31:42.370Z,1.25
2018-02-12T06:34:09.874Z,1.00
2018-02-12T06:36:37.400Z,1.23
2018-02-12T06:39:04.923Z,1.20
2018-02-12T06:41:32.438Z,0.80
2018-02-12T06:43:59.948Z,1.30
2018-02-12T06:46:27.476Z,1.20
2018-02-12T06:48:55.760Z,1.00
2018-02-12T06:51:24.017Z,1.33
2018-02-12T06:53:51.530Z,1.33
2018-02-12T06:56:19.036Z,1.15
2018-02-12T06:58:46.557Z,1.30
2018-02-12T07:01:14.058Z,1.23
2018-02-12T07:03:41.578Z,1.40
2018-02-12T07:06:09.075Z,1.05
2018-02-12T07:08:36.598Z,1.20
2018-02-12T07:11:04.099Z,0.90
2018-02-12T07:13:32.371Z,0.90
2018-02-12T07:16:00.666Z,1.10
2018-02-12T07:18:28.944Z,1.00
2018-02-12T07:20:57.217Z,1.33
2018-02-12T07:23:25.487Z,1.37
2018-02-12T07:25:53.779Z,1.65
2018-02-12T07:28:21.269Z,1.33
2018-02-12T07:30:48.795Z,1.20
2018-02-12T07:33:16.307Z,1.70
2018-02-12T07:35:43.843Z,1.42
2018-02-12T07:38:11.333Z,1.45
2018-02-12T07:40:38.820Z,1.48
2018-02-12T07:43:07.106Z,2.20
2018-02-12T07:45:34.605Z,1.77
2018-02-12T07:48:02.121Z,1.65
2018-02-12T07:50:29.621Z,1.65
2018-02-12T07:52:57.148Z,1.70
2018-02-12T07:55:24.661Z,2.40
2018-02-12T07:57:52.172Z,2.10
2018-02-12T08:00:19.665Z,2.03
2018-02-12T08:02:47.162Z,1.60
2018-02-12T08:05:15.445Z,1.75
2018-02-12T08:07:42.950Z,1.37
2018-02-12T08:10:10.462Z,1.80
2018-02-12T08:12:37.962Z,1.17
2018-02-12T08:15:05.496Z,1.58
2018-02-12T08:17:32.984Z,2.03
2018-02-12T08:20:00.506Z,1.67
2018-02-12T08:22:28.017Z,3.50
2018-02-12T08:24:55.534Z,2.58
2018-02-12T08:27:23.020Z,3.47
2018-02-12T08:29:50.517Z,3.62
2018-02-12T08:32:18.802Z,1.37
2018-02-12T08:34:46.303Z,1.20
2018-02-12T08:37:13.827Z,1.25
2018-02-12T08:39:41.344Z,0.98
2018-02-12T08:42:08.844Z,1.20
2018-02-12T08:44:36.352Z,1.10
2018-02-12T08:47:03.871Z,1.08
2018-02-12T08:49:31.360Z,1.02
2018-02-12T08:51:58.857Z,0.73
2018-02-12T08:54:27.124Z,0.90
2018-02-12T08:56:55.427Z,1.00
2018-02-12T08:59:23.387Z,0.73
2018-02-12T09:01:51.654Z,0.93
2018-02-12T09:04:20.095Z,1.10
2018-02-12T09:06:47.612Z,1.40
2018-02-12T09:09:15.126Z,1.35
2018-02-12T09:11:42.625Z,1.30
2018-02-12T09:14:10.150Z,1.20
2018-02-12T09:16:37.653Z,1.08
2018-02-12T09:19:05.164Z,1.08
2018-02-12T09:21:32.691Z,1.35
2018-02-12T09:24:00.194Z,1.50
2018-02-12T09:26:28.482Z,1.20
2018-02-12T09:28:56.750Z,1.50
2018-02-12T09:31:25.030Z,1.12
2018-02-12T09:33:53.294Z,1.10
2018-02-12T09:36:20.848Z,1.30
2018-02-12T09:38:48.325Z,1.58
2018-02-12T09:41:16.575Z,1.40
2018-02-12T09:43:44.090Z,1.50
2018-02-12T09:46:11.594Z,1.45
2018-02-12T09:48:39.869Z,2.03
2018-02-12T09:51:07.365Z,2.08
2018-02-12T09:53:34.867Z,1.75
2018-02-12T09:56:02.374Z,1.77
2018-02-12T09:58:30.653Z,1.70
2018-02-12T10:00:58.932Z,1.48
2018-02-12T10:03:26.457Z,1.73
2018-02-12T10:05:53.950Z,1.25
2018-02-12T10:08:21.450Z,2.12
2018-02-12T10:10:49.098Z,1.25
2018-02-12T10:13:16.604Z,1.55
2018-02-12T10:15:44.880Z,1.25
2018-02-12T10:18:12.382Z,2.17
2018-02-12T10:20:39.897Z,1.83
2018-02-12T10:23:07.404Z,1.40
2018-02-12T10:25:34.924Z,1.80
2018-02-12T10:28:03.190Z,1.55
2018-02-12T10:30:31.458Z,1.75
2018-02-12T10:32:58.978Z,1.55
2018-02-12T10:35:26.473Z,2.17
2018-02-12T10:37:53.980Z,1.73
2018-02-12T10:40:21.487Z,1.95
2018-02-12T10:42:48.992Z,1.70
2018-02-12T10:45:16.493Z,1.52
2018-02-12T10:47:44.000Z,1.02
2018-02-12T10:50:11.503Z,1.00
2018-02-12T10:52:39.030Z,1.45
2018-02-12T10:55:06.588Z,1.50
2018-02-12T10:57:34.088Z,1.60
2018-02-12T11:00:01.611Z,1.55
2018-02-12T11:02:29.110Z,1.40
2018-02-12T11:04:56.623Z,1.55
2018-02-12T11:07:24.127Z,1.90
2018-02-12T11:09:51.655Z,1.80
2018-02-12T11:12:19.160Z,1.80
2018-02-12T11:14:47.447Z,1.55
2018-02-12T11:17:15.715Z,1.00
2018-02-12T11:19:43.995Z,1.30
2018-02-12T11:22:12.279Z,1.05
2018-02-12T11:24:40.536Z,1.30
2018-02-12T11:27:08.064Z,2.05
2018-02-12T11:29:35.584Z,1.80
2018-02-12T11:32:03.103Z,1.55
2018-02-12T11:34:30.592Z,0.90
2018-02-12T11:36:58.870Z,1.30
2018-02-12T11:39:26.379Z,1.20
2018-02-12T11:41:53.910Z,1.70
2018-02-12T11:44:21.407Z,1.33
2018-02-12T11:46:48.900Z,1.50
2018-02-12T11:49:17.192Z,1.30
2018-02-12T11:51:44.703Z,2.20
2018-02-12T11:54:12.232Z,1.67
2018-02-12T11:56:39.724Z,2.80
2018-02-12T11:59:07.235Z,2.03
2018-02-12T12:01:34.741Z,1.80
2018-02-12T12:04:02.262Z,2.45
2018-02-12T12:06:29.767Z,2.78
2018-02-12T12:08:58.060Z,3.12
2018-02-12T12:11:26.360Z,4.18
2018-02-12T12:13:53.880Z,4.05
2018-02-12T12:16:22.184Z,3.25
2018-02-12T12:18:49.676Z,2.67
2018-02-12T12:21:17.180Z,3.03
2018-02-12T12:23:45.446Z,2.40
2018-02-12T12:26:12.961Z,2.80
2018-02-12T12:28:40.464Z,2.25
2018-02-12T12:31:07.966Z,1.55
2018-02-12T12:33:35.483Z,1.62
2018-02-12T12:36:03.768Z,1.60
2018-02-12T12:38:31.314Z,1.42
2018-02-12T12:40:58.828Z,1.45
2018-02-12T12:43:26.356Z,1.67
2018-02-12T12:45:53.858Z,2.17
2018-02-12T12:48:21.379Z,3.20
2018-02-12T12:50:48.879Z,2.80
2018-02-12T12:53:16.506Z,2.83
2018-02-12T12:55:43.992Z,2.40
2018-02-12T12:58:11.486Z,1.50
2018-02-12T13:00:39.788Z,1.50
2018-02-12T13:03:07.286Z,0.93
2018-02-12T13:05:34.800Z,1.45
2018-02-12T13:08:03.067Z,1.30
2018-02-12T13:10:31.376Z,0.90
2018-02-12T13:12:58.878Z,1.27
2018-02-12T13:15:26.386Z,1.40
2018-02-12T13:17:53.873Z,1.00
2018-02-12T13:20:21.365Z,1.30
2018-02-12T13:22:49.664Z,1.00
2018-02-12T13:25:17.188Z,1.17
2018-02-12T13:27:44.701Z,1.08
2018-02-12T13:30:12.216Z,0.90
2018-02-12T13:32:40.493Z,1.52
2018-02-12T13:35:08.762Z,0.95
2018-02-12T13:37:36.293Z,1.42
2018-02-12T13:40:03.807Z,1.60
2018-02-12T13:42:31.340Z,1.25
2018-02-12T13:44:58.846Z,1.60
2018-02-12T13:47:26.346Z,1.20
2018-02-12T13:49:53.894Z,1.08
2018-02-12T13:52:21.370Z,1.35
2018-02-12T13:54:48.891Z,1.05
2018-02-12T13:57:16.390Z,1.20
2018-02-12T13:59:43.906Z,1.23
2018-02-12T14:02:11.400Z,1.20
2018-02-12T14:04:38.928Z,1.30
2018-02-12T14:07:06.434Z,1.33
2018-02-12T14:09:34.744Z,1.00
2018-02-12T14:12:02.258Z,1.05
2018-02-12T14:14:29.748Z,1.10
2018-02-12T14:16:57.274Z,1.08
2018-02-12T14:19:24.774Z,1.17
2018-02-12T14:21:52.286Z,1.17
2018-02-12T14:24:19.786Z,1.12
2018-02-12T14:26:47.318Z,1.55
2018-02-12T14:29:15.600Z,1.23
2018-02-12T14:31:43.886Z,0.90
2018-02-12T14:34:11.377Z,1.10
2018-02-12T14:36:38.868Z,1.08
2018-02-12T14:39:06.385Z,1.30
2018-02-12T14:41:33.872Z,1.15
2018-02-12T14:44:02.140Z,1.20
2018-02-12T14:46:29.628Z,1.17
2018-02-12T14:48:57.155Z,1.25
2018-02-12T14:51:24.671Z,1.35
2018-02-12T14:53:52.198Z,1.45
2018-02-12T14:56:19.697Z,1.40
2018-02-12T14:58:47.203Z,1.10
2018-02-12T15:01:14.717Z,1.27
2018-02-12T15:03:42.204Z,1.08
2018-02-12T15:06:09.727Z,1.90
2018-02-12T15:08:37.217Z,1.05
2018-02-12T15:11:04.733Z,1.30
2018-02-12T15:13:33.003Z,0.90
2018-02-12T15:16:01.276Z,1.00
2018-02-12T15:18:29.552Z,1.00
2018-02-12T15:20:57.855Z,0.90
2018-02-12T15:23:25.358Z,1.00
2018-02-12T15:25:52.878Z,1.95
2018-02-12T15:28:20.389Z,1.67
2018-02-12T15:30:47.894Z,2.72
2018-02-12T15:33:15.405Z,2.65
2018-02-12T15:35:43.771Z,5.50
2018-02-12T15:38:11.291Z,4.75
2018-02-12T15:40:38.789Z,3.20
2018-02-12T15:43:06.309Z,2.12
2018-02-12T15:45:33.816Z,1.95
2018-02-12T15:48:01.327Z,1.35
2018-02-12T15:50:28.845Z,1.80
2018-02-12T15:52:57.120Z,1.50
2018-02-12T15:55:25.415Z,1.45
2018-02-12T15:57:53.430Z,1.67
2018-02-12T16:00:21.036Z,1.40
2018-02-12T16:02:49.292Z,1.67
2018-02-12T16:05:16.826Z,1.30
2018-02-12T16:07:44.313Z,1.40
2018-02-12T16:10:11.820Z,1.98
2018-02-12T16:12:39.317Z,1.80
2018-02-12T16:15:06.831Z,1.75
2018-02-12T16:17:34.364Z,2.20
2018-02-12T16:20:02.642Z,1.50
2018-02-12T16:22:30.925Z,1.87
2018-02-12T16:24:58.431Z,1.80
2018-02-12T16:27:25.960Z,2.35
2018-02-12T16:29:53.466Z,2.72
2018-02-12T16:32:21.008Z,1.95
2018-02-12T16:34:48.532Z,2.10
2018-02-12T16:37:16.038Z,2.60
2018-02-12T16:39:43.557Z,1.90
2018-02-12T16:42:11.049Z,2.10
2018-02-12T16:44:38.568Z,1.83
2018-02-12T16:47:06.052Z,1.40
2018-02-12T16:49:33.557Z,1.52
2018-02-12T16:52:01.827Z,1.40
2018-02-12T16:54:30.103Z,1.73
2018-02-12T16:56:58.370Z,2.47
2018-02-12T16:59:25.897Z,1.60
2018-02-12T17:01:53.404Z,1.55
2018-02-12T17:04:21.692Z,1.75
2018-02-12T17:06:49.200Z,1.50
2018-02-12T17:09:16.715Z,1.40
2018-02-12T17:11:44.234Z,1.40
2018-02-12T17:14:12.081Z,1.02
2018-02-12T17:16:40.416Z,1.20
2018-02-12T17:19:07.926Z,1.30
2018-02-12T17:21:35.446Z,1.48
2018-02-12T17:24:02.937Z,1.70
2018-02-12T17:26:30.442Z,3.05
2018-02-12T17:28:57.966Z,1.70
2018-02-12T17:31:25.478Z,1.30
2018-02-12T17:33:52.988Z,1.40
2018-02-12T17:36:20.512Z,1.37
2018-02-12T17:38:48.037Z,1.10
2018-02-12T17:41:15.533Z,1.87
2018-02-12T17:43:43.062Z,1.95
2018-02-12T17:46:10.567Z,1.73
2018-02-12T17:48:38.092Z,1.60
2018-02-12T17:51:05.611Z,1.50
2018-02-12T17:53:33.891Z,1.70
2018-02-12T17:56:02.169Z,1.80
2018-02-12T17:58:30.431Z,1.67
2018-02-12T18:00:57.944Z,1.87
2018-02-12T18:03:25.470Z,2.00
2018-02-12T18:05:53.751Z,1.50
2018-02-12T18:08:21.249Z,1.70
2018-02-12T18:10:48.822Z,1.90
2018-02-12T18:13:16.312Z,1.92
2018-02-12T18:15:44.582Z,1.85
2018-02-12T18:18:12.856Z,1.75
2018-02-12T18:20:41.141Z,1.98
2018-02-12T18:23:09.439Z,1.40
2018-02-12T18:25:36.957Z,1.60
2018-02-12T18:28:04.481Z,1.50
2018-02-12T18:30:32.031Z,1.77
2018-02-12T18:32:59.548Z,1.30
2018-02-12T18:35:27.818Z,1.30
2018-02-12T18:37:55.314Z,1.87
2018-02-12T18:40:22.820Z,2.15
2018-02-12T18:42:50.311Z,1.35
2018-02-12T18:45:18.585Z,1.85
2018-02-12T18:47:46.840Z,1.27
2018-02-12T18:50:14.370Z,1.35
2018-02-12T18:52:41.888Z,1.48
2018-02-12T18:55:09.421Z,1.30
2018-02-12T18:57:38.539Z,1.95
2018-02-12T19:00:06.054Z,1.50
2018-02-12T19:02:33.558Z,1.62
2018-02-12T19:05:01.085Z,1.83
2018-02-12T19:07:28.593Z,1.48
2018-02-12T19:09:56.097Z,1.05
2018-02-12T19:12:23.631Z,1.83
2018-02-12T19:14:51.152Z,1.58
2018-02-12T19:17:18.674Z,1.48
2018-02-12T19:19:46.174Z,1.10
2018-02-12T19:22:13.702Z,2.05
2018-02-12T19:24:42.003Z,1.75
2018-02-12T19:27:09.517Z,1.30
2018-02-12T19:29:37.055Z,1.95
2018-02-12T19:32:04.547Z,1.90
2018-02-12T19:34:32.065Z,1.80
2018-02-12T19:36:59.588Z,2.00
2018-02-12T19:39:27.860Z,1.67
2018-02-12T19:41:56.140Z,1.85
2018-02-12T19:44:24.440Z,1.98
2018-02-12T19:46:51.936Z,1.55
2018-02-12T19:49:19.423Z,1.98
2018-02-12T19:51:47.710Z,1.70
2018-02-12T19:54:15.981Z,2.08
2018-02-12T19:56:44.252Z,2.40
2018-02-12T19:59:12.522Z,1.73
2018-02-12T20:01:40.810Z,1.90
2018-02-12T20:04:10.129Z,1.90
2018-02-12T20:06:37.711Z,1.70
2018-02-12T20:09:05.200Z,2.00
2018-02-12T20:11:32.712Z,1.80
2018-02-12T20:14:00.235Z,2.22
2018-02-12T20:16:28.502Z,2.00
2018-02-12T20:18:57.265Z,1.67
2018-02-12T20:21:24.780Z,1.80
2018-02-12T20:23:52.306Z,2.17
2018-02-12T20:26:19.817Z,3.85
2018-02-12T20:28:47.355Z,1.80
2018-02-12T20:31:14.882Z,1.90
2018-02-12T20:33:42.420Z,2.15
2018-02-12T20:36:09.916Z,2.00
2018-02-12T20:38:38.210Z,1.65
2018-02-12T20:41:05.713Z,1.62
2018-02-12T20:43:33.214Z,1.60
2018-02-12T20:46:01.485Z,1.80
2018-02-12T20:48:29.785Z,1.75
2018-02-12T20:50:57.296Z,1.85
2018-02-12T20:53:24.817Z,1.55
2018-02-12T20:55:52.384Z,1.95
2018-02-12T20:58:19.876Z,1.42
2018-02-12T21:00:47.398Z,1.55
2018-02-12T21:03:14.902Z,2.00
2018-02-12T21:05:43.165Z,1.85
2018-02-12T21:08:10.690Z,3.35
2018-02-12T21:10:38.208Z,5.50
2018-02-12T21:13:06.498Z,2.90
2018-02-12T21:15:34.011Z,2.53
2018-02-12T21:18:01.540Z,2.42
2018-02-12T21:20:31.011Z,2.10
2018-02-12T21:22:59.284Z,1.50
2018-02-12T21:25:27.568Z,2.37
2018-02-12T21:27:55.088Z,3.78
2018-02-12T21:30:22.604Z,4.00
2018-02-12T21:32:50.110Z,4.57
2018-02-12T21:35:17.625Z,4.00
2018-02-12T21:37:45.130Z,4.53
2018-02-12T21:40:12.650Z,4.57
2018-02-12T21:42:40.154Z,3.95
2018-02-12T21:45:07.671Z,4.57
2018-02-12T21:47:35.170Z,5.07
2018-02-12T21:50:02.688Z,3.85
2018-02-12T21:52:30.204Z,4.55
2018-02-12T21:54:58.488Z,4.70
2018-02-12T21:57:26.011Z,3.97
2018-02-12T21:59:53.521Z,4.10
2018-02-12T22:02:21.050Z,3.35
2018-02-12T22:04:49.322Z,2.90
2018-02-12T22:07:17.601Z,3.87
2018-02-12T22:09:45.878Z,4.87
2018-02-12T22:12:14.168Z,4.32
2018-02-12T22:14:41.673Z,5.18
2018-02-12T22:17:09.173Z,5.53
2018-02-12T22:19:37.454Z,5.57
2018-02-12T22:22:05.732Z,4.43
2018-02-12T22:24:34.028Z,5.28
2018-02-12T22:27:01.532Z,5.85
2018-02-12T22:29:29.054Z,5.12
2018-02-12T22:31:56.558Z,4.55
2018-02-12T22:34:24.093Z,4.00
2018-02-12T22:36:51.598Z,3.92
2018-02-12T22:39:19.885Z,4.37
2018-02-12T22:41:47.394Z,4.25
2018-02-12T22:44:14.884Z,4.50
2018-02-12T22:46:43.165Z,4.05
2018-02-12T22:49:11.439Z,4.30
2018-02-12T22:51:39.736Z,3.55
2018-02-12T22:54:07.228Z,3.75
2018-02-12T22:56:34.746Z,4.32
2018-02-12T22:59:02.261Z,5.75
2018-02-12T23:01:29.772Z,4.70
2018-02-12T23:03:57.278Z,6.35
2018-02-12T23:06:24.772Z,5.30
2018-02-12T23:08:53.068Z,4.75
2018-02-12T23:11:20.584Z,4.60
2018-02-12T23:13:48.116Z,4.75
2018-02-12T23:16:15.624Z,4.95
2018-02-12T23:18:43.907Z,4.43
2018-02-12T23:21:11.431Z,6.07
2018-02-12T23:23:38.950Z,5.12
2018-02-12T23:26:06.463Z,5.65
2018-02-12T23:28:34.764Z,4.03
2018-02-12T23:31:02.278Z,4.85
2018-02-12T23:33:29.773Z,4.43
2018-02-12T23:35:58.055Z,4.07
2018-02-12T23:38:25.557Z,4.25
2018-02-12T23:40:53.104Z,3.70
2018-02-12T23:43:20.606Z,4.62
2018-02-12T23:45:48.889Z,3.37
2018-02-12T23:48:17.172Z,4.40
2018-02-12T23:50:45.444Z,3.83
2018-02-12T23:53:13.701Z,3.78
2018-02-12T23:55:41.216Z,4.57
2018-02-12T23:58:08.750Z,4.20
